createdAt,value
2018-12-14T00:01:06.406Z,18.60
2018-12-14T00:03:39.011Z,22.23
2018-12-14T00:06:16.166Z,19.03
2018-12-14T00:08:48.579Z,18.47
2018-12-14T00:11:25.749Z,24.13
2018-12-14T00:13:58.901Z,19.47
2018-12-14T00:16:31.927Z,18.70
2018-12-14T00:19:04.274Z,19.77
2018-12-14T00:21:37.330Z,20.20
2018-12-14T00:24:09.571Z,20.93
2018-12-14T00:26:46.534Z,19.30
2018-12-14T00:29:19.629Z,18.77
2018-12-14T00:31:52.647Z,23.27
2018-12-14T00:34:28.841Z,19.20
2018-12-14T00:37:01.961Z,25.47
2018-12-14T00:39:34.893Z,23.43
2018-12-14T00:42:07.098Z,20.30
2018-12-14T00:44:40.107Z,21.50
2018-12-14T00:47:13.307Z,22.83
2018-12-14T00:49:50.143Z,19.10
2018-12-14T00:52:23.345Z,19.27
2018-12-14T00:54:55.705Z,19.20
2018-12-14T00:57:28.013Z,18.40
2018-12-14T01:00:01.095Z,19.50
2018-12-14T01:02:33.390Z,20.00
2018-12-14T01:05:05.923Z,19.67
2018-12-14T01:07:38.940Z,19.67
2018-12-14T01:10:11.998Z,18.20
2018-12-14T01:12:48.218Z,18.27
2018-12-14T01:15:24.450Z,21.70
2018-12-14T01:17:57.645Z,22.07
2018-12-14T01:20:33.912Z,19.73
2018-12-14T01:23:10.927Z,19.53
2018-12-14T01:25:44.180Z,19.93
2018-12-14T01:28:16.971Z,18.17
2018-12-14T01:30:49.911Z,19.07
2018-12-14T01:33:23.082Z,19.97
2018-12-14T01:35:59.274Z,23.80
2018-12-14T01:38:32.393Z,19.47
2018-12-14T01:41:08.630Z,21.17
2018-12-14T01:43:41.740Z,25.33
2018-12-14T01:46:17.954Z,24.17
2018-12-14T01:48:55.117Z,21.53
2018-12-14T01:51:32.238Z,24.77
2018-12-14T01:54:05.273Z,23.20
2018-12-14T01:56:37.841Z,22.40
2018-12-14T01:59:10.931Z,24.70
2018-12-14T02:01:48.076Z,22.43
2018-12-14T02:04:20.278Z,23.07
2018-12-14T02:06:53.283Z,20.63
2018-12-14T02:09:27.495Z,19.03
2018-12-14T02:12:11.000Z,20.30
2018-12-14T02:14:38.810Z,26.40
2018-12-14T02:17:16.370Z,22.23
2018-12-14T02:19:49.289Z,20.07
2018-12-14T02:22:26.450Z,24.23
2018-12-14T02:24:59.514Z,20.13
2018-12-14T02:27:32.566Z,20.77
2018-12-14T02:30:16.358Z,19.67
2018-12-14T02:32:49.454Z,18.20
2018-12-14T02:35:22.443Z,21.77
2018-12-14T02:37:55.901Z,18.83
2018-12-14T02:40:28.474Z,20.17
2018-12-14T02:43:00.906Z,22.23
2018-12-14T02:45:37.986Z,21.40
2018-12-14T02:48:15.174Z,19.43
2018-12-14T02:50:48.139Z,20.10
2018-12-14T02:53:24.345Z,18.37
2018-12-14T02:55:57.400Z,17.70
2018-12-14T02:58:34.378Z,18.17
2018-12-14T03:01:07.480Z,18.70
2018-12-14T03:03:39.799Z,20.90
2018-12-14T03:06:16.175Z,19.70
2018-12-14T03:08:49.114Z,20.70
2018-12-14T03:11:25.451Z,19.10
2018-12-14T03:13:58.454Z,19.23
2018-12-14T03:16:34.764Z,18.37
2018-12-14T03:19:12.089Z,19.07
2018-12-14T03:21:44.260Z,20.40
2018-12-14T03:24:16.530Z,17.43
2018-12-14T03:26:49.010Z,19.50
2018-12-14T03:29:22.034Z,19.20
2018-12-14T03:31:55.160Z,20.10
2018-12-14T03:34:31.362Z,19.20
2018-12-14T03:37:04.511Z,17.90
2018-12-14T03:39:40.720Z,21.50
2018-12-14T03:42:17.039Z,19.97
2018-12-14T03:44:50.172Z,22.57
2018-12-14T03:47:27.461Z,21.17
2018-12-14T03:50:04.765Z,21.10
2018-12-14T03:52:41.006Z,20.43
2018-12-14T03:55:14.006Z,21.83
2018-12-14T03:57:51.346Z,21.30
2018-12-14T04:00:24.736Z,22.03
2018-12-14T04:02:57.899Z,20.90
2018-12-14T04:05:31.272Z,21.13
2018-12-14T04:08:08.133Z,21.90
2018-12-14T04:10:44.333Z,19.90
2018-12-14T04:13:17.310Z,21.80
2018-12-14T04:15:53.471Z,21.33
2018-12-14T04:18:31.050Z,21.37
2018-12-14T04:21:03.375Z,22.23
2018-12-14T04:23:36.283Z,24.77
2018-12-14T04:26:09.281Z,21.30
2018-12-14T04:28:41.694Z,22.60
2018-12-14T04:31:14.822Z,22.50
2018-12-14T04:33:47.789Z,22.47
2018-12-14T04:36:24.802Z,24.40
2018-12-14T04:38:57.418Z,21.37
2018-12-14T04:41:34.550Z,24.93
2018-12-14T04:44:06.754Z,22.83
2018-12-14T04:46:43.900Z,23.67
2018-12-14T04:49:16.927Z,22.03
2018-12-14T04:51:53.237Z,24.53
2018-12-14T04:54:29.482Z,28.30
2018-12-14T04:57:05.987Z,24.13
2018-12-14T04:59:38.839Z,27.37
2018-12-14T05:02:15.275Z,25.03
2018-12-14T05:04:48.227Z,25.27
2018-12-14T05:07:21.269Z,21.73
2018-12-14T05:09:57.496Z,25.77
2018-12-14T05:12:30.605Z,24.30
2018-12-14T05:15:03.641Z,22.60
2018-12-14T05:17:36.667Z,24.00
2018-12-14T05:20:13.820Z,25.83
2018-12-14T05:22:46.896Z,25.00
2018-12-14T05:25:23.891Z,23.63
2018-12-14T05:27:56.365Z,26.60
2018-12-14T05:30:29.595Z,23.97
2018-12-14T05:33:02.535Z,23.90
2018-12-14T05:35:35.710Z,27.20
2018-12-14T05:38:12.129Z,23.87
2018-12-14T05:40:45.314Z,24.07
2018-12-14T05:43:18.490Z,27.20
2018-12-14T05:45:50.878Z,26.50
2018-12-14T05:48:23.216Z,25.07
2018-12-14T05:50:56.163Z,22.60
2018-12-14T05:53:28.451Z,23.80
2018-12-14T05:56:04.725Z,23.10
2018-12-14T05:58:37.955Z,24.23
2018-12-14T06:01:11.135Z,24.37
2018-12-14T06:03:44.294Z,23.70
2018-12-14T06:06:17.485Z,26.23
2018-12-14T06:08:50.735Z,24.70
2018-12-14T06:11:23.892Z,22.27
2018-12-14T06:13:56.915Z,22.97
2018-12-14T06:16:32.866Z,22.73
2018-12-14T06:19:05.330Z,23.10
2018-12-14T06:21:38.500Z,26.30
2018-12-14T06:24:11.442Z,22.33
2018-12-14T06:26:48.504Z,22.00
2018-12-14T06:29:21.570Z,20.70
2018-12-14T06:31:54.797Z,26.80
2018-12-14T06:34:27.974Z,23.20
2018-12-14T06:37:00.948Z,22.70
2018-12-14T06:39:34.140Z,24.57
2018-12-14T06:42:06.707Z,22.83
2018-12-14T06:44:39.766Z,26.57
2018-12-14T06:47:13.294Z,24.37
2018-12-14T06:49:46.082Z,23.23
2018-12-14T06:52:19.516Z,27.27
2018-12-14T06:54:52.490Z,23.27
2018-12-14T06:57:24.958Z,24.73
2018-12-14T06:59:58.137Z,25.47
2018-12-14T07:02:34.459Z,23.27
2018-12-14T07:05:07.905Z,25.00
2018-12-14T07:07:40.881Z,27.13
2018-12-14T07:10:17.276Z,23.27
2018-12-14T07:12:50.426Z,27.43
2018-12-14T07:15:22.857Z,25.50
2018-12-14T07:18:00.146Z,28.70
2018-12-14T07:20:36.582Z,25.40
2018-12-14T07:23:09.571Z,27.60
2018-12-14T07:25:42.732Z,28.40
2018-12-14T07:28:15.252Z,28.30
2018-12-14T07:30:48.227Z,32.30
2018-12-14T07:33:20.506Z,29.67
2018-12-14T07:35:56.931Z,28.03
2018-12-14T07:38:29.391Z,29.20
2018-12-14T07:41:01.714Z,30.30
2018-12-14T07:43:34.248Z,24.77
2018-12-14T07:46:07.078Z,25.37
2018-12-14T07:48:40.134Z,27.93
2018-12-14T07:51:13.335Z,25.83
2018-12-14T07:53:46.416Z,29.70
2018-12-14T07:56:18.686Z,27.50
2018-12-14T07:58:51.811Z,25.73
2018-12-14T08:01:28.619Z,30.57
2018-12-14T08:04:01.904Z,26.70
2018-12-14T08:06:34.431Z,26.10
2018-12-14T08:09:08.675Z,32.43
2018-12-14T08:11:45.726Z,29.87
2018-12-14T08:14:18.727Z,29.30
2018-12-14T08:16:55.102Z,35.93
2018-12-14T08:19:28.334Z,33.73
2018-12-14T08:22:01.490Z,32.00
2018-12-14T08:24:34.665Z,30.93
2018-12-14T08:27:07.214Z,30.17
2018-12-14T08:29:40.384Z,32.50
2018-12-14T08:32:13.716Z,32.33
2018-12-14T08:34:50.933Z,30.83
2018-12-14T08:37:22.030Z,29.17
2018-12-14T08:39:55.012Z,27.80
2018-12-14T08:42:31.272Z,32.93
2018-12-14T08:45:08.519Z,28.87
2018-12-14T08:47:45.898Z,29.57
2018-12-14T08:50:18.484Z,30.13
2018-12-14T08:52:51.556Z,30.60
2018-12-14T08:55:24.610Z,31.13
2018-12-14T08:57:57.749Z,34.03
2018-12-14T09:00:30.790Z,29.97
2018-12-14T09:03:03.978Z,31.23
2018-12-14T09:05:36.311Z,31.93
2018-12-14T09:08:13.541Z,32.30
2018-12-14T09:10:46.521Z,33.53
2018-12-14T09:13:19.478Z,30.13
2018-12-14T09:15:52.562Z,32.13
2018-12-14T09:18:25.077Z,29.83
2018-12-14T09:21:00.982Z,29.53
2018-12-14T09:23:36.376Z,29.20
2018-12-14T09:26:09.670Z,31.03
2018-12-14T09:28:43.138Z,30.50
2018-12-14T09:31:16.904Z,28.67
2018-12-14T09:33:49.871Z,31.13
2018-12-14T09:36:26.225Z,29.87
2018-12-14T09:38:59.540Z,30.27
2018-12-14T09:41:32.682Z,33.10
2018-12-14T09:44:05.730Z,34.57
2018-12-14T09:46:37.970Z,30.70
2018-12-14T09:49:11.198Z,31.30
2018-12-14T09:51:44.354Z,32.13
2018-12-14T09:54:17.750Z,30.97
2018-12-14T09:56:50.548Z,32.73
2018-12-14T09:59:24.619Z,32.53
2018-12-14T10:02:01.054Z,34.17
2018-12-14T10:04:38.102Z,30.83
2018-12-14T10:07:11.219Z,35.40
2018-12-14T10:09:49.546Z,36.77
2018-12-14T10:12:26.702Z,38.23
2018-12-14T10:14:59.626Z,31.90
2018-12-14T10:17:32.807Z,32.40
2018-12-14T10:20:10.636Z,32.53
2018-12-14T10:22:46.893Z,31.20
2018-12-14T10:25:20.058Z,31.77
2018-12-14T10:27:53.234Z,31.27
2018-12-14T10:30:26.303Z,34.40
2018-12-14T10:32:59.531Z,33.27
2018-12-14T10:35:32.651Z,31.93
2018-12-14T10:38:10.313Z,31.63
2018-12-14T10:40:47.466Z,31.10
2018-12-14T10:43:20.441Z,31.93
2018-12-14T10:45:59.806Z,31.67
2018-12-14T10:48:32.679Z,32.73
2018-12-14T10:51:09.298Z,32.03
2018-12-14T10:53:42.441Z,31.20
2018-12-14T10:56:15.479Z,32.90
2018-12-14T10:58:47.815Z,31.00
2018-12-14T11:01:25.816Z,30.50
2018-12-14T11:03:58.927Z,31.90
2018-12-14T11:06:35.441Z,33.63
2018-12-14T11:09:14.554Z,29.83
2018-12-14T11:11:51.166Z,29.37
2018-12-14T11:14:23.640Z,30.00
2018-12-14T11:16:56.563Z,27.07
2018-12-14T11:19:29.392Z,26.53
2018-12-14T11:22:02.275Z,27.93
2018-12-14T11:24:35.319Z,26.70
2018-12-14T11:27:08.384Z,26.47
2018-12-14T11:29:41.382Z,26.00
2018-12-14T11:32:14.327Z,27.50
2018-12-14T11:34:51.261Z,24.93
2018-12-14T11:37:24.065Z,27.20
2018-12-14T11:39:57.190Z,25.07
2018-12-14T11:42:33.798Z,27.33
2018-12-14T11:45:08.578Z,25.50
2018-12-14T11:47:41.782Z,27.03
2018-12-14T11:50:14.454Z,24.60
2018-12-14T11:52:47.592Z,28.53
2018-12-14T11:55:20.294Z,26.27
2018-12-14T11:57:52.755Z,27.53
2018-12-14T12:00:25.719Z,27.87
2018-12-14T12:02:58.822Z,29.17
2018-12-14T12:05:31.630Z,29.50
2018-12-14T12:08:09.526Z,28.33
2018-12-14T12:10:42.543Z,28.63
2018-12-14T12:13:15.436Z,27.97
2018-12-14T12:15:52.489Z,30.73
2018-12-14T12:18:24.793Z,28.53
2018-12-14T12:20:57.205Z,30.57
2018-12-14T12:23:29.466Z,29.30
2018-12-14T12:26:02.622Z,29.80
2018-12-14T12:28:35.759Z,29.17
2018-12-14T12:31:08.642Z,30.63
2018-12-14T12:33:45.818Z,34.90
2018-12-14T12:36:23.011Z,41.53
2018-12-14T12:38:59.642Z,37.87
2018-12-14T12:41:32.512Z,38.93
2018-12-14T12:44:09.396Z,39.53
2018-12-14T12:46:42.318Z,39.37
2018-12-14T12:49:15.434Z,39.23
2018-12-14T12:51:47.910Z,36.50
2018-12-14T12:54:20.954Z,37.43
2018-12-14T12:56:53.315Z,34.63
2018-12-14T12:59:26.433Z,36.17
2018-12-14T13:01:59.786Z,35.97
2018-12-14T13:04:36.977Z,35.43
2018-12-14T13:07:13.998Z,35.03
2018-12-14T13:09:51.415Z,36.53
2018-12-14T13:12:24.078Z,33.43
2018-12-14T13:15:00.363Z,34.30
2018-12-14T13:17:37.633Z,32.40
2018-12-14T13:20:14.698Z,34.00
2018-12-14T13:22:47.557Z,35.97
2018-12-14T13:25:20.751Z,34.53
2018-12-14T13:27:53.454Z,34.97
2018-12-14T13:30:25.988Z,36.63
2018-12-14T13:33:02.846Z,31.50
2018-12-14T13:35:40.139Z,29.80
2018-12-14T13:38:17.235Z,28.57
2018-12-14T13:40:50.987Z,28.27
2018-12-14T13:43:28.776Z,26.73
2018-12-14T13:46:06.269Z,27.67
2018-12-14T13:48:39.723Z,28.47
2018-12-14T13:51:12.834Z,35.10
2018-12-14T13:53:45.896Z,38.10
2018-12-14T13:56:18.999Z,39.90
2018-12-14T13:58:52.395Z,37.47
2018-12-14T14:01:25.678Z,37.13
2018-12-14T14:04:02.378Z,40.40
2018-12-14T14:06:35.561Z,37.77
2018-12-14T14:09:09.061Z,33.83
2018-12-14T14:11:42.214Z,36.80
2018-12-14T14:14:15.708Z,38.23
2018-12-14T14:16:49.676Z,38.53
2018-12-14T14:19:24.065Z,35.00
2018-12-14T14:22:01.039Z,33.53
2018-12-14T14:24:37.985Z,37.67
2018-12-14T14:27:12.106Z,38.77
2018-12-14T14:29:45.491Z,40.77
2018-12-14T14:32:22.674Z,36.80
2018-12-14T14:34:59.731Z,38.60
2018-12-14T14:37:33.435Z,37.03
2018-12-14T14:40:06.433Z,33.93
2018-12-14T14:42:39.925Z,38.03
2018-12-14T14:45:12.834Z,37.90
2018-12-14T14:47:50.776Z,37.67
2018-12-14T14:50:27.385Z,39.37
2018-12-14T14:53:00.879Z,38.90
2018-12-14T14:55:37.826Z,41.20
2018-12-14T14:58:14.942Z,38.67
2018-12-14T15:00:47.982Z,40.57
2018-12-14T15:03:21.515Z,41.77
2018-12-14T15:05:55.093Z,41.27
2018-12-14T15:08:28.477Z,43.93
2018-12-14T15:11:01.382Z,45.67
2018-12-14T15:13:38.130Z,40.53
2018-12-14T15:16:16.050Z,40.47
2018-12-14T15:18:50.130Z,43.70
2018-12-14T15:21:22.828Z,42.20
2018-12-14T15:24:01.228Z,38.47
2018-12-14T15:26:38.197Z,39.40
2018-12-14T15:29:12.812Z,39.90
2018-12-14T15:31:46.664Z,40.23
2018-12-14T15:34:19.891Z,40.33
2018-12-14T15:36:53.021Z,40.53
2018-12-14T15:39:26.558Z,41.83
2018-12-14T15:42:04.113Z,38.97
2018-12-14T15:44:37.003Z,41.53
2018-12-14T15:47:14.142Z,39.63
2018-12-14T15:49:47.383Z,37.40
2018-12-14T15:52:24.595Z,40.37
2018-12-14T15:54:57.819Z,38.57
2018-12-14T15:57:31.042Z,40.87
2018-12-14T16:00:08.873Z,42.63
2018-12-14T16:02:42.304Z,42.87
2018-12-14T16:05:18.386Z,47.63
2018-12-14T16:07:52.027Z,41.83
2018-12-14T16:10:24.964Z,46.17
2018-12-14T16:12:58.497Z,44.40
2018-12-14T16:15:31.559Z,41.37
2018-12-14T16:18:05.032Z,39.87
2018-12-14T16:20:37.880Z,41.00
2018-12-14T16:23:11.293Z,37.50
2018-12-14T16:25:44.132Z,40.20
2018-12-14T16:28:17.730Z,38.93
2018-12-14T16:30:50.827Z,40.70
2018-12-14T16:33:23.935Z,43.93
2018-12-14T16:35:57.285Z,37.00
2018-12-14T16:38:30.726Z,40.97
2018-12-14T16:41:03.859Z,37.77
2018-12-14T16:43:37.086Z,35.63
2018-12-14T16:46:10.459Z,34.30
2018-12-14T16:48:43.921Z,34.93
2018-12-14T16:51:17.441Z,35.43
2018-12-14T16:53:55.169Z,33.90
2018-12-14T16:56:28.232Z,34.20
2018-12-14T16:59:01.543Z,34.13
2018-12-14T17:01:34.592Z,37.97
2018-12-14T17:04:07.802Z,35.33
2018-12-14T17:06:44.104Z,37.83
2018-12-14T17:09:17.392Z,38.80
2018-12-14T17:11:50.495Z,39.40
2018-12-14T17:14:23.354Z,33.23
2018-12-14T17:16:56.510Z,39.03
2018-12-14T17:19:29.890Z,35.63
2018-12-14T17:22:06.818Z,38.57
2018-12-14T17:24:43.187Z,36.50
2018-12-14T17:27:16.338Z,37.93
2018-12-14T17:29:49.184Z,38.10
2018-12-14T17:32:22.346Z,41.00
2018-12-14T17:34:55.429Z,39.33
2018-12-14T17:37:31.830Z,37.97
2018-12-14T17:40:05.097Z,39.43
2018-12-14T17:42:38.005Z,39.83
2018-12-14T17:45:14.314Z,38.83
2018-12-14T17:47:46.810Z,37.47
2018-12-14T17:50:20.258Z,40.70
2018-12-14T17:52:53.274Z,40.10
2018-12-14T17:55:26.945Z,47.57
2018-12-14T17:57:59.586Z,39.43
2018-12-14T18:00:32.816Z,38.27
2018-12-14T18:03:09.060Z,37.27
2018-12-14T18:05:42.256Z,42.07
2018-12-14T18:08:15.418Z,38.63
2018-12-14T18:10:48.652Z,41.20
2018-12-14T18:13:21.516Z,42.27
2018-12-14T18:15:57.903Z,39.60
2018-12-14T18:18:31.074Z,39.37
2018-12-14T18:21:04.363Z,34.60
2018-12-14T18:23:37.821Z,41.00
2018-12-14T18:26:10.934Z,35.20
2018-12-14T18:28:44.387Z,35.90
2018-12-14T18:31:21.254Z,34.10
2018-12-14T18:33:54.583Z,35.20
2018-12-14T18:36:27.724Z,37.07
2018-12-14T18:39:00.985Z,36.57
2018-12-14T18:41:34.024Z,35.40
2018-12-14T18:44:11.182Z,38.27
2018-12-14T18:46:44.788Z,35.53
2018-12-14T18:49:17.554Z,36.93
2018-12-14T18:51:50.761Z,38.03
2018-12-14T18:54:24.129Z,36.43
2018-12-14T18:56:57.048Z,36.17
2018-12-14T18:59:30.670Z,39.30
2018-12-14T19:02:03.750Z,36.03
2018-12-14T19:04:37.006Z,36.90
2018-12-14T19:07:14.192Z,39.10
2018-12-14T19:09:46.986Z,35.07
2018-12-14T19:12:21.133Z,38.17
2018-12-14T19:14:55.357Z,34.03
2018-12-14T19:17:32.969Z,35.47
2018-12-14T19:20:06.670Z,38.00
2018-12-14T19:22:43.182Z,37.53
2018-12-14T19:25:16.869Z,38.57
2018-12-14T19:27:50.944Z,37.43
2018-12-14T19:30:25.229Z,38.57
2018-12-14T19:33:03.203Z,42.67
2018-12-14T19:35:36.561Z,36.50
2018-12-14T19:38:13.761Z,37.90
2018-12-14T19:40:47.792Z,36.27
2018-12-14T19:43:20.390Z,35.47
2018-12-14T19:45:53.498Z,35.23
2018-12-14T19:48:26.714Z,33.30
2018-12-14T19:51:07.095Z,40.63
2018-12-14T19:53:40.692Z,37.40
2018-12-14T19:56:17.389Z,36.50
2018-12-14T19:58:50.486Z,37.10
2018-12-14T20:01:27.898Z,36.60
2018-12-14T20:04:05.509Z,38.43
2018-12-14T20:06:38.979Z,34.67
2018-12-14T20:09:12.085Z,36.33
2018-12-14T20:11:45.178Z,35.10
2018-12-14T20:14:18.516Z,38.10
2018-12-14T20:16:51.522Z,35.33
2018-12-14T20:19:24.659Z,38.83
2018-12-14T20:21:58.258Z,36.00
2018-12-14T20:24:35.045Z,38.27
2018-12-14T20:27:12.622Z,38.57
2018-12-14T20:29:45.569Z,39.17
2018-12-14T20:32:18.829Z,37.83
2018-12-14T20:34:52.056Z,39.80
2018-12-14T20:37:25.611Z,33.47
2018-12-14T20:40:02.424Z,33.23
2018-12-14T20:42:39.899Z,37.53
2018-12-14T20:45:16.983Z,37.50
2018-12-14T20:47:50.213Z,37.13
2018-12-14T20:50:23.120Z,36.27
2018-12-14T20:52:56.065Z,39.57
2018-12-14T20:55:29.006Z,35.50
2018-12-14T20:58:02.302Z,39.20
2018-12-14T21:00:35.643Z,43.57
2018-12-14T21:03:08.902Z,38.77
2018-12-14T21:05:46.026Z,36.27
2018-12-14T21:08:18.924Z,40.33
2018-12-14T21:10:52.338Z,40.97
2018-12-14T21:13:26.392Z,39.63
2018-12-14T21:15:59.479Z,35.20
2018-12-14T21:18:36.130Z,41.93
2018-12-14T21:21:09.628Z,40.20
2018-12-14T21:23:42.681Z,39.17
2018-12-14T21:26:19.963Z,43.23
2018-12-14T21:28:53.222Z,36.17
2018-12-14T21:31:25.598Z,41.20
2018-12-14T21:34:02.026Z,40.00
2018-12-14T21:36:35.247Z,37.50
2018-12-14T21:39:12.940Z,43.17
2018-12-14T21:41:49.731Z,43.67
2018-12-14T21:44:22.597Z,39.37
2018-12-14T21:46:55.174Z,43.93
2018-12-14T21:49:28.591Z,41.80
2018-12-14T21:52:01.615Z,39.57
2018-12-14T21:54:38.075Z,40.07
2018-12-14T21:57:11.140Z,47.00
2018-12-14T21:59:44.494Z,35.60
2018-12-14T22:02:18.522Z,38.93
2018-12-14T22:04:51.068Z,36.63
2018-12-14T22:07:24.347Z,38.80
2018-12-14T22:09:57.561Z,35.60
2018-12-14T22:12:34.002Z,37.83
2018-12-14T22:15:07.210Z,34.27
2018-12-14T22:17:39.664Z,35.40
2018-12-14T22:20:12.772Z,37.27
2018-12-14T22:22:46.091Z,33.10
2018-12-14T22:25:19.311Z,34.57
2018-12-14T22:27:53.020Z,35.40
2018-12-14T22:30:25.877Z,36.23
2018-12-14T22:32:58.954Z,32.53
2018-12-14T22:35:35.399Z,34.23
2018-12-14T22:38:08.536Z,34.10
2018-12-14T22:40:45.891Z,35.23
2018-12-14T22:43:19.114Z,34.10
2018-12-14T22:45:52.486Z,37.53
2018-12-14T22:48:25.585Z,37.97
2018-12-14T22:51:02.578Z,33.23
2018-12-14T22:53:39.502Z,33.57
2018-12-14T22:56:11.697Z,35.07
2018-12-14T22:58:44.243Z,35.07
2018-12-14T23:01:17.703Z,38.07
2018-12-14T23:03:50.795Z,36.50
2018-12-14T23:06:23.718Z,33.97
2018-12-14T23:08:56.940Z,30.97
2018-12-14T23:11:30.196Z,39.97
2018-12-14T23:14:03.280Z,32.63
2018-12-14T23:16:36.478Z,33.90
2018-12-14T23:19:09.526Z,32.40
2018-12-14T23:21:42.718Z,32.60
2018-12-14T23:24:15.830Z,34.10
2018-12-14T23:26:48.261Z,32.33
2018-12-14T23:29:21.570Z,30.07
2018-12-14T23:31:58.746Z,30.80
2018-12-14T23:34:31.826Z,31.00
2018-12-14T23:37:04.927Z,28.93
2018-12-14T23:39:37.968Z,30.93
2018-12-14T23:42:10.870Z,29.53
2018-12-14T23:44:43.817Z,32.40
2018-12-14T23:47:18.322Z,34.30
2018-12-14T23:49:51.395Z,32.87
2018-12-14T23:52:24.639Z,34.50
2018-12-14T23:54:57.942Z,32.47
2018-12-14T23:57:30.454Z,29.83
